createdAt,value
2019-02-20T00:04:51.382Z,5.05
2019-02-20T00:10:55.624Z,5.33
2019-02-20T00:16:59.981Z,4.80
2019-02-20T00:23:04.193Z,5.80
2019-02-20T00:29:08.397Z,5.80
2019-02-20T00:35:12.655Z,5.95
2019-02-20T00:41:16.918Z,6.50
2019-02-20T00:47:32.160Z,7.03
2019-02-20T00:53:41.678Z,7.17
2019-02-20T00:59:45.940Z,7.35
2019-02-20T01:05:50.198Z,8.70
2019-02-20T01:11:54.452Z,7.90
2019-02-20T01:17:58.755Z,8.18
2019-02-20T01:24:03.042Z,7.90
2019-02-20T01:30:07.503Z,8.63
2019-02-20T01:36:11.750Z,8.63
2019-02-20T01:42:16.023Z,8.33
2019-02-20T01:48:20.255Z,10.50
2019-02-20T01:54:24.519Z,12.13
2019-02-20T02:00:29.020Z,11.30
2019-02-20T02:06:33.397Z,15.95
2019-02-20T02:12:37.624Z,17.17
2019-02-20T02:18:41.880Z,10.60
2019-02-20T02:24:46.086Z,11.13
2019-02-20T02:30:50.467Z,11.00
2019-02-20T02:36:54.729Z,11.20
2019-02-20T02:42:59.104Z,11.20
2019-02-20T02:49:03.278Z,11.47
2019-02-20T02:55:07.665Z,10.50
2019-02-20T03:01:11.873Z,11.07
2019-02-20T03:07:16.201Z,11.68
2019-02-20T03:13:20.401Z,10.77
2019-02-20T03:19:24.740Z,11.63
2019-02-20T03:25:29.013Z,11.80
2019-02-20T03:31:33.285Z,12.30
2019-02-20T03:37:37.528Z,13.30
2019-02-20T03:43:41.803Z,13.53
2019-02-20T03:49:46.003Z,12.87
2019-02-20T03:55:50.396Z,14.33
2019-02-20T04:01:54.678Z,12.67
2019-02-20T04:07:59.310Z,13.93
2019-02-20T04:14:03.850Z,14.03
2019-02-20T04:20:08.435Z,13.53
2019-02-20T04:26:12.710Z,14.83
2019-02-20T04:32:17.014Z,14.03
2019-02-20T04:38:21.206Z,15.90
2019-02-20T04:44:25.987Z,15.10
2019-02-20T04:50:32.086Z,16.60
2019-02-20T04:56:36.289Z,16.03
2019-02-20T05:02:40.531Z,19.17
2019-02-20T05:08:44.777Z,17.13
2019-02-20T05:14:49.051Z,17.20
2019-02-20T05:20:53.266Z,20.77
2019-02-20T05:26:57.453Z,17.03
2019-02-20T05:33:01.778Z,15.60
2019-02-20T05:39:06.896Z,21.87
2019-02-20T05:45:11.258Z,16.40
2019-02-20T05:51:15.473Z,17.30
2019-02-20T05:57:19.767Z,19.37
2019-02-20T06:03:24.058Z,16.67
2019-02-20T06:09:28.329Z,18.00
2019-02-20T06:15:32.536Z,17.07
2019-02-20T06:21:36.959Z,18.43
2019-02-20T06:27:41.242Z,17.63
2019-02-20T06:33:45.547Z,17.20
2019-02-20T06:39:49.733Z,18.17
2019-02-20T06:45:54.219Z,18.07
2019-02-20T06:51:58.373Z,17.73
2019-02-20T06:58:02.767Z,20.63
2019-02-20T07:04:06.985Z,23.53
2019-02-20T07:10:37.549Z,20.73
2019-02-20T07:17:14.245Z,22.27
2019-02-20T07:23:31.978Z,20.90
2019-02-20T07:30:04.714Z,21.07
2019-02-20T07:36:08.937Z,22.87
2019-02-20T07:42:13.187Z,21.23
2019-02-20T07:48:17.481Z,24.93
2019-02-20T07:54:21.676Z,22.57
2019-02-20T08:00:26.006Z,19.13
2019-02-20T08:06:30.565Z,18.33
2019-02-20T08:12:34.825Z,25.93
2019-02-20T08:18:39.192Z,26.50
2019-02-20T08:24:43.407Z,20.67
2019-02-20T08:30:47.768Z,24.67
2019-02-20T08:36:52.024Z,29.63
2019-02-20T08:42:56.298Z,20.40
2019-02-20T08:49:00.572Z,19.70
2019-02-20T08:55:05.213Z,19.27
2019-02-20T09:01:09.587Z,18.77
2019-02-20T09:07:13.821Z,16.60
2019-02-20T09:13:18.073Z,17.12
2019-02-20T09:19:22.270Z,16.17
2019-02-20T09:25:26.711Z,15.60
2019-02-20T09:31:30.939Z,16.37
2019-02-20T09:37:35.895Z,15.98
2019-02-20T09:43:40.155Z,15.43
2019-02-20T09:49:44.348Z,13.20
2019-02-20T09:55:51.483Z,12.35
2019-02-20T10:01:54.614Z,12.65
2019-02-20T10:07:59.087Z,12.05
2019-02-20T10:14:03.261Z,12.20
2019-02-20T10:20:08.527Z,12.68
2019-02-20T10:26:12.792Z,12.15
2019-02-20T10:32:17.109Z,10.93
2019-02-20T10:38:21.334Z,9.45
2019-02-20T10:44:25.702Z,9.00
2019-02-20T10:50:29.947Z,9.50
2019-02-20T10:56:34.333Z,9.90
2019-02-20T11:02:38.570Z,8.43
2019-02-20T11:08:42.837Z,7.83
2019-02-20T11:14:48.852Z,8.63
2019-02-20T11:20:53.028Z,8.18
2019-02-20T11:26:57.255Z,8.35
2019-02-20T11:33:03.379Z,7.92
2019-02-20T11:39:07.628Z,7.70
2019-02-20T11:45:12.014Z,8.60
2019-02-20T11:51:16.208Z,7.53
2019-02-20T11:57:20.404Z,9.00
2019-02-20T12:03:24.804Z,10.63
2019-02-20T12:09:29.007Z,10.03
2019-02-20T12:15:33.285Z,9.98
2019-02-20T12:21:37.546Z,9.80
2019-02-20T12:27:41.920Z,10.15
2019-02-20T12:33:46.303Z,8.80
2019-02-20T12:39:50.592Z,9.33
2019-02-20T12:45:54.896Z,6.45
2019-02-20T12:52:00.146Z,9.03
2019-02-20T12:58:04.728Z,9.73
2019-02-20T13:04:09.009Z,8.65
2019-02-20T13:10:13.406Z,9.40
2019-02-20T13:16:17.601Z,12.07
2019-02-20T13:22:21.881Z,9.55
2019-02-20T13:28:26.123Z,8.48
2019-02-20T13:34:30.400Z,8.85
2019-02-20T13:40:36.416Z,7.45
2019-02-20T13:46:40.769Z,7.50
2019-02-20T13:52:51.963Z,5.72
2019-02-20T13:58:51.043Z,5.60
2019-02-20T14:04:55.304Z,5.60
2019-02-20T14:10:59.616Z,7.35
2019-02-20T14:17:04.099Z,5.83
2019-02-20T14:23:08.489Z,6.15
2019-02-20T14:29:12.873Z,6.75
2019-02-20T14:35:18.118Z,6.50
2019-02-20T14:41:22.398Z,5.60
2019-02-20T14:47:26.753Z,5.45
2019-02-20T14:53:31.278Z,5.70
2019-02-20T14:59:35.630Z,3.35
2019-02-20T15:05:39.938Z,2.55
2019-02-20T15:11:45.072Z,3.45
2019-02-20T15:17:49.423Z,4.67
2019-02-20T15:23:54.144Z,4.12
2019-02-20T15:29:58.553Z,3.72
2019-02-20T15:36:02.825Z,6.80
2019-02-20T15:42:07.176Z,7.00
2019-02-20T15:48:11.435Z,3.60
2019-02-20T15:54:15.811Z,7.87
2019-02-20T16:00:21.365Z,7.83
2019-02-20T16:06:25.642Z,8.78
2019-02-20T16:12:30.016Z,9.28
2019-02-20T16:18:34.601Z,9.38
2019-02-20T16:24:38.918Z,9.43
2019-02-20T16:30:43.616Z,10.53
2019-02-20T16:36:49.224Z,11.30
2019-02-20T16:42:53.610Z,11.28
2019-02-20T16:48:57.874Z,15.93
2019-02-20T16:55:04.625Z,11.40
2019-02-20T17:01:09.047Z,11.85
2019-02-20T17:07:13.365Z,14.87
2019-02-20T17:13:17.625Z,12.07
2019-02-20T17:19:21.923Z,13.05
2019-02-20T17:25:26.285Z,15.90
2019-02-20T17:31:30.563Z,21.80
2019-02-20T17:37:35.079Z,20.48
2019-02-20T17:43:39.391Z,16.40
2019-02-20T17:49:43.822Z,14.50
2019-02-20T17:55:48.432Z,16.05
2019-02-20T18:01:52.784Z,14.25
2019-02-20T18:07:57.065Z,15.45
2019-02-20T18:14:01.356Z,15.28
2019-02-20T18:20:05.784Z,16.90
2019-02-20T18:26:10.017Z,16.60
2019-02-20T18:32:14.336Z,17.27
2019-02-20T18:38:19.441Z,17.35
2019-02-20T18:44:23.772Z,18.65
2019-02-20T18:50:28.043Z,19.60
2019-02-20T18:56:34.044Z,20.25
2019-02-20T19:02:38.862Z,21.42
2019-02-20T19:08:45.687Z,21.45
2019-02-20T19:15:25.425Z,24.02
2019-02-20T19:21:48.495Z,22.48
2019-02-20T19:28:29.270Z,23.45
2019-02-20T19:35:08.794Z,22.27
2019-02-20T19:42:01.432Z,21.80
2019-02-20T19:48:47.142Z,19.57
2019-02-20T19:55:07.344Z,21.35
2019-02-20T20:01:40.629Z,21.15
2019-02-20T20:08:08.583Z,19.55
2019-02-20T20:15:15.721Z,19.25
2019-02-20T20:21:41.401Z,21.23
2019-02-20T20:28:10.281Z,25.17
2019-02-20T20:35:15.547Z,22.35
2019-02-20T20:41:41.305Z,22.73
2019-02-20T20:48:18.299Z,21.37
2019-02-20T20:54:56.015Z,29.80
2019-02-20T21:01:36.723Z,30.60
2019-02-20T21:08:00.434Z,25.25
2019-02-20T21:14:41.378Z,22.40
2019-02-20T21:21:23.567Z,24.67
2019-02-20T21:27:51.353Z,24.35
2019-02-20T21:34:32.402Z,24.65
2019-02-20T21:40:51.290Z,25.55
2019-02-20T21:47:45.452Z,27.65
2019-02-20T21:54:45.714Z,26.27
2019-02-20T22:01:34.915Z,25.95
2019-02-20T22:08:08.823Z,26.97
2019-02-20T22:14:21.445Z,27.70
2019-02-20T22:21:08.482Z,25.88
2019-02-20T22:27:32.906Z,26.05
2019-02-20T22:34:21.735Z,26.10
2019-02-20T22:40:42.748Z,25.17
2019-02-20T22:47:12.676Z,25.95
2019-02-20T22:53:44.758Z,23.60
2019-02-20T23:00:21.275Z,24.57
2019-02-20T23:06:51.461Z,24.20
2019-02-20T23:13:52.048Z,23.02
2019-02-20T23:19:56.466Z,23.98
2019-02-20T23:26:00.731Z,23.87
2019-02-20T23:32:04.991Z,21.90
2019-02-20T23:38:09.341Z,22.27
2019-02-20T23:44:13.575Z,21.93
2019-02-20T23:50:17.861Z,23.25
2019-02-20T23:56:22.194Z,23.32
